Flight Track Log - Related Links

Times and Time Zones

All times are in EDT time to prevent confusion due to time zone crossing. See the TMC452 flight status page for this flight to view local times or setup timezone preferences in your user account.

Time Position Orientation Groundspeed Altitude Reporting Facility
EDT Latitude Longitude Course Direction KTS MPH feet Rate Location/Type
Fri 12:34:57 PM 39.1433 -76.7450 52° Northeast 141 162 3,900  Level Washington Center
Fri 12:35:55 PM 39.1192 -76.6669 112° Southeast 99 114 6,300 2,622 Climbing Washington Center
Fri 12:36:56 PM 39.1283 -76.5683 83° East 163 188 9,100 2,213 Climbing Washington Center
Fri 12:37:57 PM 39.1353 -76.4614 85° East 239 275 10,800 1,916 Climbing Washington Center
Fri 12:38:55 PM 39.1422 -76.3517 85° East 272 313 12,900 1,932 Climbing Washington Center
Fri 12:39:00 PM 39.1695 -76.1972 38° Northeast  Level FlightAware Approximate
Fri 12:39:55 PM 39.1492 -76.2339 86° East 309 356 14,600  Level Washington Center
Fri 12:40:00 PM 39.2226 -76.1291 52° Northeast  Level FlightAware Approximate
Fri 12:40:56 PM 39.2269 -76.1408 43° Northeast 315 362 14,900  Level Washington Center
Fri 12:41:55 PM 39.3000 -76.0636 39° Northeast 320 368 14,900 30 Level Washington Center
Fri 12:44:18 PM 39.4833 -75.8833 37° Northeast 352 405 15,000  Climbing Philadelphia TRACON
Fri 12:45:07 PM 39.5500 -75.8333 30° Northeast 355 409 14,900  Descending Philadelphia TRACON
Fri 12:46:18 PM 39.6500 -75.7333 38° Northeast 355 409 15,000 -92 Climbing Philadelphia TRACON
Fri 12:47:18 PM 39.7333 -75.6667 32° Northeast 342 394 14,700 -1,043 Descending Philadelphia TRACON
Fri 12:48:13 PM 39.8000 -75.6000 38° Northeast 371 427 13,000 -843 Descending Philadelphia TRACON
Fri 12:49:19 PM 39.8833 -75.5167 37° Northeast 345 397 13,000  Level Philadelphia TRACON
Fri 12:50:19 PM 39.9667 -75.4500 32° Northeast 323 372 13,000  Level Philadelphia TRACON
Fri 12:51:19 PM 40.0333 -75.3833 37° Northeast 319 367 13,000  Level Philadelphia TRACON
Fri 12:52:19 PM 40.1167 -75.3167 31° Northeast 313 360 13,000 -300 Level Philadelphia TRACON
Fri 12:53:19 PM 40.1833 -75.2500 37° Northeast 324 373 12,400 -1,246 Descending Philadelphia TRACON
Fri 12:55:22 PM 40.3333 -75.1000 37° Northeast 301 346 9,200 -1,607 Descending New York TRACON
Fri 12:56:22 PM 40.3833 -75.0167 52° Northeast 306 352 7,500 -1,650 Descending New York TRACON
Fri 12:57:22 PM 40.4333 -74.9500 45° Northeast 295 339 5,900 -1,650 Descending New York TRACON
Fri 12:58:22 PM 40.5000 -74.8667 44° Northeast 294 338 4,200 -991 Descending New York TRACON
Fri 12:59:17 PM 40.5500 -74.8000 45° Northeast 288 331 4,000 -100 Descending New York TRACON
Fri 01:00:22 PM 40.6000 -74.7167 52° Northeast 280 322 4,000  Level New York TRACON
Fri 01:01:17 PM 40.6667 -74.6833 21° North 273 314 4,000  Level New York TRACON
Fri 01:02:17 PM 40.7333 -74.6333 30° Northeast 281 323 4,000  Level New York TRACON
Fri 01:03:17 PM 40.8000 -74.5833 30° Northeast 281 323 4,000  Level New York TRACON
Fri 01:04:17 PM 40.8833 -74.5333 24° Northeast 283 326 4,000  Level New York TRACON
Fri 01:05:17 PM 40.9500 -74.5000 21° North 285 328 4,000 -350 Level New York TRACON
Fri 01:06:17 PM 41.0167 -74.4500 30° Northeast 281 323 3,300 -500 Descending New York TRACON
Fri 01:07:17 PM 41.0500 -74.3667 62° Northeast 278 320 3,000 -150 Descending New York TRACON
Fri 01:08:17 PM 41.0500 -74.2667 90° East 278 320 3,000 -250 Level New York TRACON
Fri 01:09:17 PM 41.0500 -74.1833 90° East 249 287 2,500 -450 Descending New York TRACON
Fri 01:10:17 PM 41.0333 -74.1000 105° East 215 247 2,100 -250 Descending New York TRACON
Fri 01:11:17 PM 40.9833 -74.0500 143° Southeast 200 230 2,000 -200 Descending New York TRACON
Fri 01:12:17 PM 40.9500 -74.0500 180° South 157 181 1,700 -500 Descending New York TRACON
Fri 01:13:17 PM 40.9000 -74.0500 180° South 173 199 1,000 -700 Descending New York TRACON
Fri 01:14:17 PM 40.8667 -74.0500 180° South 114 131 300 -700 Descending New York TRACON
Fri 01:16:00 PM 40.8500 -74.0500 168° South  Level FlightAware Approximate
Fri 01:23:00 PM 40.8501 -74.0608 168° South  Level Estimated

Login

Don't have an account? Register now (free) for customized features, flight alerts, and more!